sensor_id;sensor_type;location;lat;lon;timestamp;pressure;altitude;pressure_sealevel;temperature;humidity
39769;BME280;38939;47.824;14.642;2023-02-16T00:00:46;98029.53;;;0.42;79.34
39769;BME280;38939;47.824;14.642;2023-02-16T00:01:48;98030.19;;;0.33;80.27
39769;BME280;38939;47.824;14.642;2023-02-16T00:02:50;98021.44;;;0.35;79.90
39769;BME280;38939;47.824;14.642;2023-02-16T00:03:53;98022.25;;;0.36;79.45
39769;BME280;38939;47.824;14.642;2023-02-16T00:04:55;98025.88;;;0.33;79.34
39769;BME280;38939;47.824;14.642;2023-02-16T00:05:57;98021.78;;;0.31;80.07
39769;BME280;38939;47.824;14.642;2023-02-16T00:06:59;98020.84;;;0.32;79.15
39769;BME280;38939;47.824;14.642;2023-02-16T00:08:01;98024.34;;;0.31;79.69
39769;BME280;38939;47.824;14.642;2023-02-16T00:09:03;98026.22;;;0.29;80.12
39769;BME280;38939;47.824;14.642;2023-02-16T00:10:05;98018.38;;;0.30;79.47
39769;BME280;38939;47.824;14.642;2023-02-16T00:11:17;98029.78;;;0.26;79.93
39769;BME280;38939;47.824;14.642;2023-02-16T00:12:37;98020.38;;;0.27;79.67
39769;BME280;38939;47.824;14.642;2023-02-16T00:13:58;98019.31;;;0.29;79.34
39769;BME280;38939;47.824;14.642;2023-02-16T00:15:00;98018.28;;;0.32;79.32
39769;BME280;38939;47.824;14.642;2023-02-16T00:16:01;98020.63;;;0.35;79.35
39769;BME280;38939;47.824;14.642;2023-02-16T00:17:04;98022.16;;;0.37;78.69
39769;BME280;38939;47.824;14.642;2023-02-16T00:18:12;98018.78;;;0.37;78.15
39769;BME280;38939;47.824;14.642;2023-02-16T00:19:20;98020.13;;;0.30;78.53
39769;BME280;38939;47.824;14.642;2023-02-16T00:20:23;98022.94;;;0.27;78.59
39769;BME280;38939;47.824;14.642;2023-02-16T00:21:24;98018.00;;;0.24;79.03
39769;BME280;38939;47.824;14.642;2023-02-16T00:22:26;98019.75;;;0.23;78.63
39769;BME280;38939;47.824;14.642;2023-02-16T00:23:28;98019.75;;;0.23;78.81
39769;BME280;38939;47.824;14.642;2023-02-16T00:24:30;98009.25;;;0.26;78.78
39769;BME280;38939;47.824;14.642;2023-02-16T00:25:32;98013.38;;;0.29;78.70
39769;BME280;38939;47.824;14.642;2023-02-16T00:26:34;98018.19;;;0.33;78.59
39769;BME280;38939;47.824;14.642;2023-02-16T00:27:36;98020.03;;;0.31;78.11
39769;BME280;38939;47.824;14.642;2023-02-16T00:28:38;98016.53;;;0.32;78.36
39769;BME280;38939;47.824;14.642;2023-02-16T00:29:40;98006.84;;;0.36;77.63
39769;BME280;38939;47.824;14.642;2023-02-16T00:30:46;98005.72;;;0.40;77.37
39769;BME280;38939;47.824;14.642;2023-02-16T00:31:48;98010.63;;;0.43;77.30
39769;BME280;38939;47.824;14.642;2023-02-16T00:32:50;98012.50;;;0.41;77.82
39769;BME280;38939;47.824;14.642;2023-02-16T00:33:52;98006.31;;;0.44;77.12
39769;BME280;38939;47.824;14.642;2023-02-16T00:34:54;98009.59;;;0.46;77.43
39769;BME280;38939;47.824;14.642;2023-02-16T00:35:56;98010.63;;;0.43;77.42
39769;BME280;38939;47.824;14.642;2023-02-16T00:37:03;98006.56;;;0.41;78.25
39769;BME280;38939;47.824;14.642;2023-02-16T00:38:05;98011.44;;;0.44;77.15
39769;BME280;38939;47.824;14.642;2023-02-16T00:39:07;98016.59;;;0.44;77.57
39769;BME280;38939;47.824;14.642;2023-02-16T00:40:09;98008.19;;;0.42;77.82
39769;BME280;38939;47.824;14.642;2023-02-16T00:41:18;98009.31;;;0.37;77.53
39769;BME280;38939;47.824;14.642;2023-02-16T00:42:39;98008.25;;;0.29;77.89
39769;BME280;38939;47.824;14.642;2023-02-16T00:43:42;98015.00;;;0.30;78.06
39769;BME280;38939;47.824;14.642;2023-02-16T00:44:48;98001.25;;;0.31;78.47
39769;BME280;38939;47.824;14.642;2023-02-16T00:45:51;98011.28;;;0.34;78.27
39769;BME280;38939;47.824;14.642;2023-02-16T00:46:53;98011.38;;;0.32;77.67
39769;BME280;38939;47.824;14.642;2023-02-16T00:47:55;98010.53;;;0.21;78.67
39769;BME280;38939;47.824;14.642;2023-02-16T00:48:57;98001.97;;;0.09;79.14
39769;BME280;38939;47.824;14.642;2023-02-16T00:49:59;97999.41;;;0.09;78.99
39769;BME280;38939;47.824;14.642;2023-02-16T00:51:03;98005.22;;;0.11;78.95
39769;BME280;38939;47.824;14.642;2023-02-16T00:53:22;98002.69;;;-0.02;78.98
39769;BME280;38939;47.824;14.642;2023-02-16T00:54:24;98004.25;;;0.01;78.76
39769;BME280;38939;47.824;14.642;2023-02-16T00:55:27;98003.00;;;0.06;78.93
39769;BME280;38939;47.824;14.642;2023-02-16T00:56:29;98005.34;;;0.09;78.32
39769;BME280;38939;47.824;14.642;2023-02-16T00:57:35;98004.63;;;0.07;78.67
39769;BME280;38939;47.824;14.642;2023-02-16T00:58:38;98002.41;;;0.03;78.48
39769;BME280;38939;47.824;14.642;2023-02-16T00:59:40;98006.72;;;0.02;78.10
39769;BME280;38939;47.824;14.642;2023-02-16T01:00:43;98002.41;;;0.03;77.83
39769;BME280;38939;47.824;14.642;2023-02-16T01:01:46;97996.66;;;-0.01;77.78
39769;BME280;38939;47.824;14.642;2023-02-16T01:02:50;97995.22;;;-0.05;78.32
39769;BME280;38939;47.824;14.642;2023-02-16T01:03:52;97998.84;;;-0.08;77.96
39769;BME280;38939;47.824;14.642;2023-02-16T01:04:54;97995.56;;;-0.10;78.16
39769;BME280;38939;47.824;14.642;2023-02-16T01:05:56;97993.81;;;-0.09;78.20
39769;BME280;38939;47.824;14.642;2023-02-16T01:07:17;97989.50;;;-0.09;78.41
39769;BME280;38939;47.824;14.642;2023-02-16T01:08:37;97993.38;;;-0.03;77.60
39769;BME280;38939;47.824;14.642;2023-02-16T01:09:58;97984.69;;;-0.13;78.05
39769;BME280;38939;47.824;14.642;2023-02-16T01:11:18;97984.69;;;-0.13;78.07
39769;BME280;38939;47.824;14.642;2023-02-16T01:12:20;97985.41;;;-0.11;78.18
39769;BME280;38939;47.824;14.642;2023-02-16T01:13:24;97985.72;;;-0.16;78.28
39769;BME280;38939;47.824;14.642;2023-02-16T01:14:28;97982.31;;;-0.16;78.22
39769;BME280;38939;47.824;14.642;2023-02-16T01:15:31;97983.03;;;-0.14;78.51
39769;BME280;38939;47.824;14.642;2023-02-16T01:16:37;97980.88;;;-0.08;78.38
39769;BME280;38939;47.824;14.642;2023-02-16T01:17:39;97984.97;;;-0.05;78.64
39769;BME280;38939;47.824;14.642;2023-02-16T01:18:41;97981.59;;;-0.06;78.29
39769;BME280;38939;47.824;14.642;2023-02-16T01:19:43;97980.75;;;-0.06;77.97
39769;BME280;38939;47.824;14.642;2023-02-16T01:20:45;97977.19;;;-0.04;77.82
39769;BME280;38939;47.824;14.642;2023-02-16T01:21:47;97972.66;;;0.00;78.44
39769;BME280;38939;47.824;14.642;2023-02-16T01:22:49;97977.34;;;0.06;78.09
39769;BME280;38939;47.824;14.642;2023-02-16T01:23:51;97966.03;;;0.09;77.71
39769;BME280;38939;47.824;14.642;2023-02-16T01:24:53;97971.06;;;0.10;76.98
39769;BME280;38939;47.824;14.642;2023-02-16T01:25:55;97965.00;;;0.11;77.54
39769;BME280;38939;47.824;14.642;2023-02-16T01:26:57;97973.84;;;0.07;77.29
39769;BME280;38939;47.824;14.642;2023-02-16T01:27:59;97971.19;;;-0.04;77.76
39769;BME280;38939;47.824;14.642;2023-02-16T01:29:01;97977.28;;;-0.05;77.83
39769;BME280;38939;47.824;14.642;2023-02-16T01:30:06;97971.19;;;-0.04;77.38
39769;BME280;38939;47.824;14.642;2023-02-16T01:31:09;97971.00;;;-0.01;77.92
39769;BME280;38939;47.824;14.642;2023-02-16T01:32:11;97973.38;;;0.02;77.06
39769;BME280;38939;47.824;14.642;2023-02-16T01:33:13;97966.38;;;0.04;77.49
39769;BME280;38939;47.824;14.642;2023-02-16T01:34:15;97973.13;;;0.05;77.32
39769;BME280;38939;47.824;14.642;2023-02-16T01:35:18;97971.28;;;0.07;76.67
39769;BME280;38939;47.824;14.642;2023-02-16T01:36:25;97966.03;;;0.09;77.04
39769;BME280;38939;47.824;14.642;2023-02-16T01:37:28;97964.19;;;0.11;76.64
39769;BME280;38939;47.824;14.642;2023-02-16T01:38:30;97967.47;;;0.13;76.28
39769;BME280;38939;47.824;14.642;2023-02-16T01:39:32;97960.69;;;0.12;76.64
39769;BME280;38939;47.824;14.642;2023-02-16T01:44:03;97964.00;;;0.01;76.90
39769;BME280;38939;47.824;14.642;2023-02-16T01:45:14;97970.91;;;0.01;76.90
39769;BME280;38939;47.824;14.642;2023-02-16T01:46:23;97973.13;;;0.05;76.53
39769;BME280;38939;47.824;14.642;2023-02-16T01:48:37;97971.28;;;0.07;76.82
39769;BME280;38939;47.824;14.642;2023-02-16T01:49:39;97973.75;;;0.09;76.41
39769;BME280;38939;47.824;14.642;2023-02-16T01:50:55;97964.28;;;0.09;75.83
39769;BME280;38939;47.824;14.642;2023-02-16T01:52:05;97968.50;;;0.10;75.88
39769;BME280;38939;47.824;14.642;2023-02-16T01:53:13;97967.47;;;0.13;75.81
39769;BME280;38939;47.824;14.642;2023-02-16T01:55:38;97964.66;;;0.16;76.31
39769;BME280;38939;47.824;14.642;2023-02-16T01:56:43;97965.50;;;0.16;75.47
39769;BME280;38939;47.824;14.642;2023-02-16T01:59:20;97962.22;;;0.14;75.85
39769;BME280;38939;47.824;14.642;2023-02-16T02:01:37;97959.66;;;0.14;75.92
39769;BME280;38939;47.824;14.642;2023-02-16T02:02:42;97961.50;;;0.12;76.11
39769;BME280;38939;47.824;14.642;2023-02-16T02:03:45;97959.16;;;0.09;75.70
39769;BME280;38939;47.824;14.642;2023-02-16T02:05:20;97953.56;;;0.04;75.74
39769;BME280;38939;47.824;14.642;2023-02-16T02:06:37;97949.84;;;0.08;75.97
39769;BME280;38939;47.824;14.642;2023-02-16T02:07:41;97951.47;;;0.09;75.95
39769;BME280;38939;47.824;14.642;2023-02-16T02:08:45;97954.25;;;0.06;76.23
39769;BME280;38939;47.824;14.642;2023-02-16T02:10:00;97946.56;;;0.06;75.94
39769;BME280;38939;47.824;14.642;2023-02-16T02:14:32;97942.56;;;0.02;76.26
39769;BME280;38939;47.824;14.642;2023-02-16T02:15:36;97933.22;;;0.01;76.35
39769;BME280;38939;47.824;14.642;2023-02-16T02:16:38;97944.53;;;-0.02;76.55
39769;BME280;38939;47.824;14.642;2023-02-16T02:17:39;97936.22;;;-0.05;76.21
39769;BME280;38939;47.824;14.642;2023-02-16T02:18:41;97934.38;;;-0.03;76.62
39769;BME280;38939;47.824;14.642;2023-02-16T02:19:56;97944.53;;;-0.02;76.43
39769;BME280;38939;47.824;14.642;2023-02-16T02:22:42;97937.28;;;-0.08;76.18
39769;BME280;38939;47.824;14.642;2023-02-16T02:27:50;97940.16;;;-0.12;76.94
39769;BME280;38939;47.824;14.642;2023-02-16T02:30:12;97934.09;;;-0.11;76.97
39769;BME280;38939;47.824;14.642;2023-02-16T02:31:24;97931.31;;;-0.08;76.95
39769;BME280;38939;47.824;14.642;2023-02-16T02:38:26;97936.22;;;-0.05;75.77
39769;BME280;38939;47.824;14.642;2023-02-16T02:39:35;97942.16;;;-0.05;75.97
39769;BME280;38939;47.824;14.642;2023-02-16T02:41:58;97930.75;;;-0.01;75.90
39769;BME280;38939;47.824;14.642;2023-02-16T02:43:10;97933.44;;;-0.02;75.96
39769;BME280;38939;47.824;14.642;2023-02-16T02:44:16;97936.94;;;-0.03;75.69
39769;BME280;38939;47.824;14.642;2023-02-16T02:45:23;97933.66;;;-0.05;75.28
39769;BME280;38939;47.824;14.642;2023-02-16T02:47:42;97940.28;;;-0.14;75.85
39769;BME280;38939;47.824;14.642;2023-02-16T02:48:44;97936.88;;;-0.14;76.60
39769;BME280;38939;47.824;14.642;2023-02-16T02:49:50;97939.78;;;-0.19;76.57
39769;BME280;38939;47.824;14.642;2023-02-16T02:50:55;97938.00;;;-0.18;76.55
39769;BME280;38939;47.824;14.642;2023-02-16T02:52:17;97939.06;;;-0.21;76.59
39769;BME280;38939;47.824;14.642;2023-02-16T02:53:19;97932.19;;;-0.21;76.35
39769;BME280;38939;47.824;14.642;2023-02-16T02:54:26;97939.16;;;-0.23;76.68
39769;BME280;38939;47.824;14.642;2023-02-16T02:55:48;97937.22;;;-0.19;76.50
39769;BME280;38939;47.824;14.642;2023-02-16T02:57:43;97939.44;;;-0.14;76.13
39769;BME280;38939;47.824;14.642;2023-02-16T02:58:56;97945.28;;;-0.12;75.98
39769;BME280;38939;47.824;14.642;2023-02-16T03:00:26;97945.41;;;-0.14;76.42
39769;BME280;38939;47.824;14.642;2023-02-16T03:01:46;97947.03;;;-0.13;76.55
39769;BME280;38939;47.824;14.642;2023-02-16T03:02:50;97947.84;;;-0.12;76.38
39769;BME280;38939;47.824;14.642;2023-02-16T03:03:54;97942.72;;;-0.12;75.92
39769;BME280;38939;47.824;14.642;2023-02-16T03:04:57;97946.13;;;-0.12;75.67
39769;BME280;38939;47.824;14.642;2023-02-16T03:06:06;97949.41;;;-0.10;75.78
39769;BME280;38939;47.824;14.642;2023-02-16T03:07:10;97944.38;;;-0.11;75.73
39769;BME280;38939;47.824;14.642;2023-02-16T03:08:14;97940.16;;;-0.12;76.08
39769;BME280;38939;47.824;14.642;2023-02-16T03:09:18;97939.34;;;-0.13;76.21
39769;BME280;38939;47.824;14.642;2023-02-16T03:10:30;97939.66;;;-0.17;76.34
39769;BME280;38939;47.824;14.642;2023-02-16T03:11:52;97939.06;;;-0.21;76.63
39769;BME280;38939;47.824;14.642;2023-02-16T03:13:15;97937.31;;;-0.21;76.57
39769;BME280;38939;47.824;14.642;2023-02-16T03:14:24;97936.72;;;-0.24;76.66
39769;BME280;38939;47.824;14.642;2023-02-16T03:15:27;97936.44;;;-0.32;76.80
39769;BME280;38939;47.824;14.642;2023-02-16T03:16:37;97941.44;;;-0.31;77.15
39769;BME280;38939;47.824;14.642;2023-02-16T03:17:41;97939.50;;;-0.27;76.71
39769;BME280;38939;47.824;14.642;2023-02-16T03:19:02;97936.72;;;-0.24;76.80
39769;BME280;38939;47.824;14.642;2023-02-16T03:20:23;97944.81;;;-0.17;76.62
39769;BME280;38939;47.824;14.642;2023-02-16T03:21:44;97939.78;;;-0.19;76.34
39769;BME280;38939;47.824;14.642;2023-02-16T03:23:05;97936.16;;;-0.16;76.30
39769;BME280;38939;47.824;14.642;2023-02-16T03:24:27;97933.03;;;-0.20;76.38
39769;BME280;38939;47.824;14.642;2023-02-16T03:25:49;97937.31;;;-0.21;76.60
39769;BME280;38939;47.824;14.642;2023-02-16T03:27:11;97939.16;;;-0.23;76.55
39769;BME280;38939;47.824;14.642;2023-02-16T03:28:32;97936.59;;;-0.23;76.10
39769;BME280;38939;47.824;14.642;2023-02-16T03:29:54;97940.00;;;-0.22;75.91
39769;BME280;38939;47.824;14.642;2023-02-16T03:30:57;97937.63;;;-0.25;75.94
39769;BME280;38939;47.824;14.642;2023-02-16T03:32:00;97925.75;;;-0.26;76.50
39769;BME280;38939;47.824;14.642;2023-02-16T03:33:02;97937.63;;;-0.25;76.17
39769;BME280;38939;47.824;14.642;2023-02-16T03:34:04;97935.78;;;-0.23;76.26
39769;BME280;38939;47.824;14.642;2023-02-16T03:35:07;97936.84;;;-0.26;76.10
39769;BME280;38939;47.824;14.642;2023-02-16T03:36:09;97939.41;;;-0.26;76.61
39769;BME280;38939;47.824;14.642;2023-02-16T03:37:12;97936.84;;;-0.26;76.79
39769;BME280;38939;47.824;14.642;2023-02-16T03:38:14;97932.50;;;-0.25;76.38
39769;BME280;38939;47.824;14.642;2023-02-16T03:39:17;97933.13;;;-0.22;76.12
39769;BME280;38939;47.824;14.642;2023-02-16T03:40:19;97930.56;;;-0.22;76.51
39769;BME280;38939;47.824;14.642;2023-02-16T03:41:31;97922.63;;;-0.18;76.48
39769;BME280;38939;47.824;14.642;2023-02-16T03:42:33;97922.63;;;-0.18;76.35
39769;BME280;38939;47.824;14.642;2023-02-16T03:43:35;97926.75;;;-0.16;76.68
39769;BME280;38939;47.824;14.642;2023-02-16T03:44:37;97930.22;;;-0.17;76.56
39769;BME280;38939;47.824;14.642;2023-02-16T03:45:40;97932.88;;;-0.18;76.47
39769;BME280;38939;47.824;14.642;2023-02-16T03:46:42;97928.59;;;-0.18;76.67
39769;BME280;38939;47.824;14.642;2023-02-16T03:47:44;97928.81;;;-0.21;76.89
39769;BME280;38939;47.824;14.642;2023-02-16T03:48:46;97928.81;;;-0.21;77.32
39769;BME280;38939;47.824;14.642;2023-02-16T03:49:48;97930.31;;;-0.18;76.88
39769;BME280;38939;47.824;14.642;2023-02-16T03:50:50;97925.81;;;-0.15;76.80
39769;BME280;38939;47.824;14.642;2023-02-16T03:51:52;97931.66;;;-0.13;76.36
39769;BME280;38939;47.824;14.642;2023-02-16T03:52:54;97927.31;;;-0.12;76.22
39769;BME280;38939;47.824;14.642;2023-02-16T03:54:07;97928.97;;;-0.11;76.02
39769;BME280;38939;47.824;14.642;2023-02-16T03:55:09;97931.44;;;-0.10;75.85
39769;BME280;38939;47.824;14.642;2023-02-16T03:56:11;97931.66;;;-0.13;75.96
39769;BME280;38939;47.824;14.642;2023-02-16T03:57:13;97938.84;;;-0.18;76.17
39769;BME280;38939;47.824;14.642;2023-02-16T03:58:17;97935.44;;;-0.18;76.65
39769;BME280;38939;47.824;14.642;2023-02-16T03:59:20;97937.00;;;-0.16;76.27
39769;BME280;38939;47.824;14.642;2023-02-16T04:00:21;97940.28;;;-0.14;76.30
39769;BME280;38939;47.824;14.642;2023-02-16T04:01:23;97933.50;;;-0.15;76.26
39769;BME280;38939;47.824;14.642;2023-02-16T04:02:26;97930.03;;;-0.14;76.83
39769;BME280;38939;47.824;14.642;2023-02-16T04:03:28;97933.28;;;-0.12;76.32
39769;BME280;38939;47.824;14.642;2023-02-16T04:04:30;97936.44;;;-0.08;76.52
39769;BME280;38939;47.824;14.642;2023-02-16T04:05:32;97933.16;;;-0.10;76.23
39769;BME280;38939;47.824;14.642;2023-02-16T04:06:34;97933.88;;;-0.08;76.52
39769;BME280;38939;47.824;14.642;2023-02-16T04:07:36;97932.25;;;-0.09;75.96
39769;BME280;38939;47.824;14.642;2023-02-16T04:08:38;97930.59;;;-0.10;76.11
39769;BME280;38939;47.824;14.642;2023-02-16T04:09:40;97927.31;;;-0.12;75.72
39769;BME280;38939;47.824;14.642;2023-02-16T04:10:42;97938.63;;;-0.15;76.00
39769;BME280;38939;47.824;14.642;2023-02-16T04:11:44;97938.72;;;-0.16;75.92
39769;BME280;38939;47.824;14.642;2023-02-16T04:13:04;97937.00;;;-0.16;75.96
39769;BME280;38939;47.824;14.642;2023-02-16T04:14:06;97940.59;;;-0.18;76.26
39769;BME280;38939;47.824;14.642;2023-02-16T04:15:10;97939.78;;;-0.19;75.92
39769;BME280;38939;47.824;14.642;2023-02-16T04:16:12;97939.06;;;-0.21;76.08
39769;BME280;38939;47.824;14.642;2023-02-16T04:17:14;97939.88;;;-0.21;76.23
39769;BME280;38939;47.824;14.642;2023-02-16T04:18:16;97939.16;;;-0.23;76.15
39769;BME280;38939;47.824;14.642;2023-02-16T04:19:18;97944.41;;;-0.24;76.50
39769;BME280;38939;47.824;14.642;2023-02-16T04:20:21;97941.25;;;-0.28;76.36
39769;BME280;38939;47.824;14.642;2023-02-16T04:21:23;97942.88;;;-0.27;76.23
39769;BME280;38939;47.824;14.642;2023-02-16T04:22:25;97944.72;;;-0.29;76.30
39769;BME280;38939;47.824;14.642;2023-02-16T04:23:27;97938.78;;;-0.29;76.31
39769;BME280;38939;47.824;14.642;2023-02-16T04:24:29;97941.69;;;-0.34;76.45
39769;BME280;38939;47.824;14.642;2023-02-16T04:25:31;97935.72;;;-0.34;76.47
39769;BME280;38939;47.824;14.642;2023-02-16T04:26:33;97934.00;;;-0.34;76.79
39769;BME280;38939;47.824;14.642;2023-02-16T04:27:35;97934.00;;;-0.34;76.86
39769;BME280;38939;47.824;14.642;2023-02-16T04:28:38;97932.94;;;-0.31;76.40
39769;BME280;38939;47.824;14.642;2023-02-16T04:29:39;97928.63;;;-0.31;76.41
39769;BME280;38939;47.824;14.642;2023-02-16T04:30:41;97936.13;;;-0.28;76.00
39769;BME280;38939;47.824;14.642;2023-02-16T04:31:43;97930.75;;;-0.25;76.08
39769;BME280;38939;47.824;14.642;2023-02-16T04:32:45;97926.56;;;-0.26;75.83
39769;BME280;38939;47.824;14.642;2023-02-16T04:33:47;97929.13;;;-0.26;75.86
39769;BME280;38939;47.824;14.642;2023-02-16T04:34:49;97931.53;;;-0.35;76.25
39769;BME280;38939;47.824;14.642;2023-02-16T04:35:51;97930.91;;;-0.39;76.48
39769;BME280;38939;47.824;14.642;2023-02-16T04:36:53;97927.53;;;-0.39;76.90
39769;BME280;38939;47.824;14.642;2023-02-16T04:37:55;97929.06;;;-0.37;76.85
39769;BME280;38939;47.824;14.642;2023-02-16T04:38:57;97934.19;;;-0.37;76.95
39769;BME280;38939;47.824;14.642;2023-02-16T04:39:59;97923.13;;;-0.37;76.98
39769;BME280;38939;47.824;14.642;2023-02-16T04:41:01;97931.63;;;-0.37;77.04
39769;BME280;38939;47.824;14.642;2023-02-16T04:42:03;97930.59;;;-0.34;76.49
39769;BME280;38939;47.824;14.642;2023-02-16T04:43:05;97925.34;;;-0.33;76.17
39769;BME280;38939;47.824;14.642;2023-02-16T04:44:07;97928.63;;;-0.31;76.23
39769;BME280;38939;47.824;14.642;2023-02-16T04:45:09;97928.84;;;-0.34;76.50
39769;BME280;38939;47.824;14.642;2023-02-16T04:46:11;97922.19;;;-0.36;76.54
39769;BME280;38939;47.824;14.642;2023-02-16T04:47:13;97927.44;;;-0.38;77.15
39769;BME280;38939;47.824;14.642;2023-02-16T04:48:15;97923.31;;;-0.41;76.99
39769;BME280;38939;47.824;14.642;2023-02-16T04:49:17;97925.41;;;-0.46;77.56
39769;BME280;38939;47.824;14.642;2023-02-16T04:50:19;97923.38;;;-0.53;77.60
39769;BME280;38939;47.824;14.642;2023-02-16T04:51:21;97922.66;;;-0.55;77.77
39769;BME280;38939;47.824;14.642;2023-02-16T04:52:23;97923.78;;;-0.59;78.21
39769;BME280;38939;47.824;14.642;2023-02-16T04:53:25;97920.63;;;-0.63;78.61
39769;BME280;38939;47.824;14.642;2023-02-16T04:54:27;97922.16;;;-0.61;78.52
39769;BME280;38939;47.824;14.642;2023-02-16T04:55:29;97929.72;;;-0.59;78.46
39769;BME280;38939;47.824;14.642;2023-02-16T04:56:31;97918.56;;;-0.58;78.24
39769;BME280;38939;47.824;14.642;2023-02-16T04:57:33;97928.50;;;-0.53;78.33
39769;BME280;38939;47.824;14.642;2023-02-16T04:58:35;97933.44;;;-0.50;77.83
39769;BME280;38939;47.824;14.642;2023-02-16T04:59:37;97923.75;;;-0.47;77.84
39769;BME280;38939;47.824;14.642;2023-02-16T05:00:39;97927.63;;;-0.41;77.55
39769;BME280;38939;47.824;14.642;2023-02-16T05:01:41;97927.63;;;-0.41;77.10
39769;BME280;38939;47.824;14.642;2023-02-16T05:02:43;97936.97;;;-0.40;77.35
39769;BME280;38939;47.824;14.642;2023-02-16T05:03:45;97933.56;;;-0.41;77.32
39769;BME280;38939;47.824;14.642;2023-02-16T05:04:47;97936.47;;;-0.45;77.48
39769;BME280;38939;47.824;14.642;2023-02-16T05:05:49;97937.50;;;-0.48;77.58
39769;BME280;38939;47.824;14.642;2023-02-16T05:06:51;97930.63;;;-0.47;77.38
39769;BME280;38939;47.824;14.642;2023-02-16T05:07:53;97933.91;;;-0.45;77.26
39769;BME280;38939;47.824;14.642;2023-02-16T05:08:55;97939.75;;;-0.43;77.10
39769;BME280;38939;47.824;14.642;2023-02-16T05:09:57;97927.63;;;-0.41;76.83
39769;BME280;38939;47.824;14.642;2023-02-16T05:10:59;97931.72;;;-0.38;76.61
39769;BME280;38939;47.824;14.642;2023-02-16T05:12:19;97929.16;;;-0.38;76.32
39769;BME280;38939;47.824;14.642;2023-02-16T05:13:56;97934.63;;;-0.43;76.38
39769;BME280;38939;47.824;14.642;2023-02-16T05:15:17;97930.63;;;-0.47;76.44
39769;BME280;38939;47.824;14.642;2023-02-16T05:16:19;97936.47;;;-0.45;76.43
39769;BME280;38939;47.824;14.642;2023-02-16T05:17:23;97938.13;;;-0.44;76.52
39769;BME280;38939;47.824;14.642;2023-02-16T05:18:26;97938.31;;;-0.47;76.86
39769;BME280;38939;47.824;14.642;2023-02-16T05:19:27;97930.03;;;-0.51;76.77
39769;BME280;38939;47.824;14.642;2023-02-16T05:20:29;97933.44;;;-0.50;76.75
39769;BME280;38939;47.824;14.642;2023-02-16T05:21:49;97932.38;;;-0.48;76.86
39769;BME280;38939;47.824;14.642;2023-02-16T05:22:51;97938.31;;;-0.47;76.73
39769;BME280;38939;47.824;14.642;2023-02-16T05:23:53;97936.47;;;-0.45;77.05
39769;BME280;38939;47.824;14.642;2023-02-16T05:24:55;97934.63;;;-0.43;76.56
39769;BME280;38939;47.824;14.642;2023-02-16T05:25:57;97932.75;;;-0.41;76.83
39769;BME280;38939;47.824;14.642;2023-02-16T05:26:59;97933.56;;;-0.41;76.61
39769;BME280;38939;47.824;14.642;2023-02-16T05:28:01;97940.25;;;-0.38;76.85
39769;BME280;38939;47.824;14.642;2023-02-16T05:29:04;97939.41;;;-0.38;76.63
39769;BME280;38939;47.824;14.642;2023-02-16T05:30:06;97943.72;;;-0.39;76.58
39769;BME280;38939;47.824;14.642;2023-02-16T05:31:08;97931.72;;;-0.38;77.04
39769;BME280;38939;47.824;14.642;2023-02-16T05:32:10;97936.84;;;-0.38;76.63
39769;BME280;38939;47.824;14.642;2023-02-16T05:33:12;97938.50;;;-0.37;76.86
39769;BME280;38939;47.824;14.642;2023-02-16T05:34:14;97942.59;;;-0.35;76.61
39769;BME280;38939;47.824;14.642;2023-02-16T05:35:16;97941.25;;;-0.41;76.66
39769;BME280;38939;47.824;14.642;2023-02-16T05:36:18;97942.22;;;-0.42;76.83
39769;BME280;38939;47.824;14.642;2023-02-16T05:37:20;97948.16;;;-0.41;77.33
39769;BME280;38939;47.824;14.642;2023-02-16T05:38:22;97946.00;;;-0.47;77.36
39769;BME280;38939;47.824;14.642;2023-02-16T05:39:24;97941.41;;;-0.55;77.79
39769;BME280;38939;47.824;14.642;2023-02-16T05:40:26;97946.56;;;-0.68;77.83
39769;BME280;38939;47.824;14.642;2023-02-16T05:41:28;97944.00;;;-0.68;77.87
39769;BME280;38939;47.824;14.642;2023-02-16T05:42:30;97949.13;;;-0.68;78.46
39769;BME280;38939;47.824;14.642;2023-02-16T05:43:32;97950.28;;;-0.72;78.67
39769;BME280;38939;47.824;14.642;2023-02-16T05:44:34;97944.91;;;-0.69;78.63
39769;BME280;38939;47.824;14.642;2023-02-16T05:45:37;97942.97;;;-0.65;78.71
39769;BME280;38939;47.824;14.642;2023-02-16T05:46:39;97946.16;;;-0.62;78.37
39769;BME280;38939;47.824;14.642;2023-02-16T05:47:41;97950.03;;;-0.56;78.20
39769;BME280;38939;47.824;14.642;2023-02-16T05:48:47;97948.19;;;-0.54;78.26
39769;BME280;38939;47.824;14.642;2023-02-16T05:49:49;97941.13;;;-0.50;78.09
39769;BME280;38939;47.824;14.642;2023-02-16T05:50:54;97946.81;;;-0.47;77.90
39769;BME280;38939;47.824;14.642;2023-02-16T05:51:56;97945.09;;;-0.46;77.87
39769;BME280;38939;47.824;14.642;2023-02-16T05:52:58;97944.78;;;-0.42;77.77
39769;BME280;38939;47.824;14.642;2023-02-16T05:54:00;97945.47;;;-0.39;77.88
39769;BME280;38939;47.824;14.642;2023-02-16T05:55:02;97952.13;;;-0.37;77.26
39769;BME280;38939;47.824;14.642;2023-02-16T05:56:04;97947.00;;;-0.37;77.01
39769;BME280;38939;47.824;14.642;2023-02-16T05:57:08;97953.50;;;-0.44;77.38
39769;BME280;38939;47.824;14.642;2023-02-16T05:58:10;97951.66;;;-0.42;77.32
39769;BME280;38939;47.824;14.642;2023-02-16T05:59:12;97952.06;;;-0.48;77.54
39769;BME280;38939;47.824;14.642;2023-02-16T06:00:14;97948.81;;;-0.50;77.50
39769;BME280;38939;47.824;14.642;2023-02-16T06:01:16;97957.41;;;-0.51;77.61
39769;BME280;38939;47.824;14.642;2023-02-16T06:02:18;97953.00;;;-0.49;77.75
39769;BME280;38939;47.824;14.642;2023-02-16T06:03:20;97965.31;;;-0.54;78.13
39769;BME280;38939;47.824;14.642;2023-02-16T06:04:22;97959.25;;;-0.53;77.90
39769;BME280;38939;47.824;14.642;2023-02-16T06:05:24;97957.41;;;-0.51;77.81
39769;BME280;38939;47.824;14.642;2023-02-16T06:06:26;97955.97;;;-0.55;78.14
39769;BME280;38939;47.824;14.642;2023-02-16T06:07:28;97956.19;;;-0.71;78.76
39769;BME280;38939;47.824;14.642;2023-02-16T06:08:30;97955.59;;;-0.75;79.01
39769;BME280;38939;47.824;14.642;2023-02-16T06:09:33;97960.28;;;-0.69;78.71
39769;BME280;38939;47.824;14.642;2023-02-16T06:10:35;97959.56;;;-0.71;78.81